Time;durP1;ratioP1;P1;durP2;ratioP2;P2;SDS_P1;SDS_P2;PMS_P1;PMS_P2;Temp;Humidity;BMP_temperature;BMP_pressure;BME280_temperature;BME280_humidity;BME280_pressure;Samples;Min_cycle;Max_cycle;Signal;HPM_P1;HPM_P2
2022/08/31 00:05:32;;;;;;;;;;;;;;;24.24;79.35;100145.88;5034673;28;19919;-83
2022/08/31 00:07:57;;;;;;;;;;;;;;;24.21;79.42;100152.47;5034277;28;19917;-83
2022/08/31 00:10:26;;;;;;;;;;;;;;;24.23;79.11;100149.94;5017456;28;20005;-83
2022/08/31 00:12:52;;;;;;;;;;;;;;;24.20;79.34;100145.19;5016900;28;20346;-83
2022/08/31 00:15:19;;;;;;;;;;;;;;;24.14;80.12;100135.66;5017073;28;19913;-83
2022/08/31 00:17:45;;;;;;;;;;;;;;;24.17;80.09;100138.38;5017056;28;20386;-83
2022/08/31 00:20:11;;;;;;;;;;;;;;;24.22;80.23;100143.47;5016736;28;19917;-83
2022/08/31 00:22:37;;;;;;;;;;;;;;;24.20;80.27;100139.50;5016707;28;19913;-83
2022/08/31 00:25:03;;;;;;;;;;;;;;;24.19;80.42;100143.63;5017282;28;19920;-84
2022/08/31 00:27:28;;;;;;;;;;;;;;;24.18;80.06;100139.16;5034101;28;19913;-84
2022/08/31 00:29:53;;;;;;;;;;;;;;;24.17;80.07;100134.72;5016900;28;19914;-84
2022/08/31 00:32:19;;;;;;;;;;;;;;;24.19;79.59;100138.72;5016605;28;19917;-83
2022/08/31 00:34:44;;;;;;;;;;;;;;;24.11;80.62;100137.34;5016541;28;19964;-83
2022/08/31 00:37:10;;;;;;;;;;;;;;;24.09;81.38;100139.09;5017093;28;19917;-84
2022/08/31 00:39:35;;;;;;;;;;;;;;;24.14;81.40;100147.03;5016511;28;20293;-82
2022/08/31 00:42:02;;;;;;;;;;;;;;;24.16;81.11;100144.53;5016379;28;19913;-83
2022/08/31 00:44:28;;;;;;;;;;;;;;;24.18;81.66;100136.31;5016477;28;19963;-84
2022/08/31 00:46:53;;;;;;;;;;;;;;;24.18;81.43;100144.84;5016418;28;19913;-83
2022/08/31 00:49:20;;;;;;;;;;;;;;;24.09;82.00;100145.56;5016382;28;19913;-83
2022/08/31 00:52:03;;;;;;;;;;;;;;;24.07;82.52;100141.56;5034407;28;19999;-83
2022/08/31 00:54:31;;;;;;;;;;;;;;;24.08;82.39;100143.19;5034344;28;19913;-83
2022/08/31 00:56:56;;;;;;;;;;;;;;;24.12;82.24;100144.63;5034463;28;19913;-83
2022/08/31 00:59:22;;;;;;;;;;;;;;;24.15;81.98;100142.94;5016334;28;20252;-84
2022/08/31 01:01:47;;;;;;;;;;;;;;;24.21;81.70;100152.47;5015863;28;19988;-83
2022/08/31 01:04:13;;;;;;;;;;;;;;;24.18;81.12;100156.22;5016599;28;19913;-83
2022/08/31 01:06:39;;;;;;;;;;;;;;;24.17;81.00;100155.41;5034404;28;19913;-83
2022/08/31 01:09:06;;;;;;;;;;;;;;;24.22;80.96;100148.38;5016598;28;19967;-83
2022/08/31 01:11:31;;;;;;;;;;;;;;;24.29;80.45;100153.84;5016210;28;19913;-83
2022/08/31 01:13:57;;;;;;;;;;;;;;;24.26;80.04;100149.84;5034211;28;19920;-82
2022/08/31 01:16:29;;;;;;;;;;;;;;;24.20;80.33;100148.84;5033886;28;19913;-84
2022/08/31 01:18:56;;;;;;;;;;;;;;;24.20;80.75;100142.34;5018211;28;19913;-84
2022/08/31 01:21:21;;;;;;;;;;;;;;;24.16;81.03;100150.19;5038142;28;20318;-83
2022/08/31 01:23:46;;;;;;;;;;;;;;;24.25;81.27;100148.25;5019894;28;19917;-83
2022/08/31 01:26:13;;;;;;;;;;;;;;;24.13;81.97;100146.25;5020509;28;19999;-84
2022/08/31 01:28:39;;;;;;;;;;;;;;;24.12;82.55;100150.31;5019915;28;19914;-84
2022/08/31 01:31:10;;;;;;;;;;;;;;;24.05;83.17;100151.34;5020111;28;19920;-83
2022/08/31 01:33:36;;;;;;;;;;;;;;;24.04;83.55;100158.28;5020369;28;19913;-84
2022/08/31 01:36:02;;;;;;;;;;;;;;;24.10;83.76;100152.03;5037741;28;19975;-83
2022/08/31 01:38:27;;;;;;;;;;;;;;;24.16;83.69;100147.34;5020000;28;19917;-84
2022/08/31 01:40:54;;;;;;;;;;;;;;;24.26;83.12;100143.38;5019666;28;19920;-83
2022/08/31 01:43:20;;;;;;;;;;;;;;;24.30;82.69;100150.53;5019603;28;19917;-84
2022/08/31 01:45:45;;;;;;;;;;;;;;;24.28;82.41;100153.00;5019824;28;19921;-83
2022/08/31 01:48:11;;;;;;;;;;;;;;;24.25;82.60;100150.31;5020386;28;19913;-83
2022/08/31 01:50:37;;;;;;;;;;;;;;;24.19;82.52;100144.41;5020041;28;20352;-82
2022/08/31 01:53:02;;;;;;;;;;;;;;;24.23;83.35;100150.75;5037469;28;19913;-83
2022/08/31 01:55:27;;;;;;;;;;;;;;;24.25;82.86;100148.25;5020281;28;19917;-83
2022/08/31 01:57:53;;;;;;;;;;;;;;;24.17;83.22;100141.22;5019294;28;20382;-83
2022/08/31 02:00:18;;;;;;;;;;;;;;;24.10;83.73;100140.66;5019055;28;19917;-83
2022/08/31 02:02:44;;;;;;;;;;;;;;;24.10;83.96;100137.81;5019709;28;19913;-82
2022/08/31 02:05:09;;;;;;;;;;;;;;;24.08;83.61;100140.34;5019499;28;19917;-83
2022/08/31 02:07:35;;;;;;;;;;;;;;;24.08;83.52;100137.50;5036620;28;19913;-82
2022/08/31 02:10:01;;;;;;;;;;;;;;;24.11;83.94;100137.34;5019396;28;19913;-83
2022/08/31 02:12:26;;;;;;;;;;;;;;;24.15;83.72;100143.72;5020007;28;19913;-82
2022/08/31 02:14:51;;;;;;;;;;;;;;;24.10;84.02;100141.47;5037375;28;20339;-83
2022/08/31 02:17:17;;;;;;;;;;;;;;;24.16;84.40;100127.47;5019560;28;19997;-83
2022/08/31 02:19:42;;;;;;;;;;;;;;;24.14;84.91;100127.13;5019261;28;20361;-83
2022/08/31 02:22:07;;;;;;;;;;;;;;;24.14;85.44;100127.13;5036560;28;19920;-83
2022/08/31 02:24:33;;;;;;;;;;;;;;;24.17;85.75;100120.53;5019146;28;19920;-84
2022/08/31 02:26:58;;;;;;;;;;;;;;;24.13;86.71;100114.97;5018796;28;19913;-84
2022/08/31 02:29:23;;;;;;;;;;;;;;;23.98;88.09;100117.50;5036162;28;19913;-83
2022/08/31 02:31:49;;;;;;;;;;;;;;;23.91;88.77;100120.56;5018725;28;19956;-82
2022/08/31 02:34:16;;;;;;;;;;;;;;;23.89;88.93;100113.75;5019216;28;20004;-83
2022/08/31 02:36:41;;;;;;;;;;;;;;;23.79;90.19;100116.47;5018667;28;19917;-84
2022/08/31 02:39:07;;;;;;;;;;;;;;;23.83;90.09;100115.56;5018854;28;19963;-83
2022/08/31 02:41:32;;;;;;;;;;;;;;;23.87;89.76;100117.06;5019079;28;19913;-83
2022/08/31 02:43:58;;;;;;;;;;;;;;;23.91;89.67;100116.91;5018388;28;20320;-83
2022/08/31 02:46:23;;;;;;;;;;;;;;;24.03;88.95;100122.59;5018573;28;20008;-82
2022/08/31 02:48:48;;;;;;;;;;;;;;;24.05;87.95;100117.25;5018705;28;20011;-83
2022/08/31 02:51:13;;;;;;;;;;;;;;;24.03;88.42;100119.75;5018615;28;19949;-83
2022/08/31 02:53:39;;;;;;;;;;;;;;;24.08;87.68;100117.59;5035772;28;19917;-83
2022/08/31 02:56:06;;;;;;;;;;;;;;;24.07;87.25;100113.16;5018562;28;20374;-84
2022/08/31 02:58:32;;;;;;;;;;;;;;;24.10;87.01;100115.09;5018207;28;19920;-83
2022/08/31 03:00:58;;;;;;;;;;;;;;;24.08;86.27;100120.44;5001593;28;19921;-84
2022/08/31 03:03:23;;;;;;;;;;;;;;;24.09;86.36;100113.50;5018012;28;19919;-83
2022/08/31 03:05:48;;;;;;;;;;;;;;;24.19;85.54;100118.03;5035903;28;19913;-84
2022/08/31 03:08:16;;;;;;;;;;;;;;;24.17;85.81;100121.31;5018595;28;19913;-84
2022/08/31 03:10:41;;;;;;;;;;;;;;;24.12;85.79;100115.41;5017920;28;19913;-84
2022/08/31 03:13:07;;;;;;;;;;;;;;;24.04;86.28;100112.81;5018495;28;19920;-84
2022/08/31 03:15:32;;;;;;;;;;;;;;;23.93;86.52;100103.84;5018778;28;20291;-81
2022/08/31 03:17:57;;;;;;;;;;;;;;;23.85;87.69;100113.06;5017550;28;19936;-83
2022/08/31 03:20:24;;;;;;;;;;;;;;;23.75;88.29;100115.78;5017762;28;20014;-83
2022/08/31 03:22:49;;;;;;;;;;;;;;;23.74;88.87;100116.25;5017650;28;19913;-83
2022/08/31 03:25:16;;;;;;;;;;;;;;;23.68;90.35;100118.06;5017733;28;19913;-84
2022/08/31 03:27:41;;;;;;;;;;;;;;;23.63;90.60;100115.81;5017967;28;19913;-82
2022/08/31 03:30:08;;;;;;;;;;;;;;;23.69;90.36;100113.97;5018015;28;19913;-84
2022/08/31 03:32:34;;;;;;;;;;;;;;;23.70;90.76;100118.41;5017525;28;19956;-83
2022/08/31 03:34:59;;;;;;;;;;;;;;;23.71;90.49;100122.84;5017844;28;19917;-83
2022/08/31 03:37:25;;;;;;;;;;;;;;;23.70;90.10;100119.22;5034954;28;19913;-83
2022/08/31 03:39:51;;;;;;;;;;;;;;;23.71;89.66;100120.03;5018009;28;19917;-83
2022/08/31 03:42:16;;;;;;;;;;;;;;;23.68;89.20;100121.72;5017378;28;20295;-83
2022/08/31 03:44:42;;;;;;;;;;;;;;;23.67;89.04;100120.13;5017660;28;19914;-82
2022/08/31 03:47:08;;;;;;;;;;;;;;;23.73;89.08;100120.34;5035446;28;19936;-83
2022/08/31 03:49:33;;;;;;;;;;;;;;;23.82;88.42;100119.69;5017854;28;19935;-83
2022/08/31 03:51:59;;;;;;;;;;;;;;;23.83;88.01;100116.38;5017268;28;20419;-83
2022/08/31 03:54:24;;;;;;;;;;;;;;;23.86;87.69;100111.81;5017791;28;19931;-84
2022/08/31 03:56:49;;;;;;;;;;;;;;;23.73;88.15;100106.94;5017725;28;19956;-83
2022/08/31 03:59:15;;;;;;;;;;;;;;;23.67;88.23;100110.81;5017345;28;20352;-84
2022/08/31 04:01:40;;;;;;;;;;;;;;;23.64;88.54;100111.72;5034349;28;19920;-83
2022/08/31 04:04:05;;;;;;;;;;;;;;;23.63;88.29;100112.97;5016920;28;19913;-83
2022/08/31 04:06:31;;;;;;;;;;;;;;;23.57;88.34;100111.91;5017568;28;19920;-83
2022/08/31 04:08:56;;;;;;;;;;;;;;;23.58;88.68;100110.66;5017270;28;20357;-82
2022/08/31 04:11:22;;;;;;;;;;;;;;;23.58;88.73;100119.97;5016816;28;19943;-82
2022/08/31 04:13:47;;;;;;;;;;;;;;;23.55;89.04;100123.72;5016858;28;19995;-83
2022/08/31 04:16:14;;;;;;;;;;;;;;;23.58;88.52;100117.13;5016824;28;20047;-82
2022/08/31 04:18:41;;;;;;;;;;;;;;;23.58;88.43;100122.03;5034523;28;19917;-83
2022/08/31 04:21:14;;;;;;;;;;;;;;;23.64;88.53;100125.91;5016776;28;20015;-83
2022/08/31 04:23:40;;;;;;;;;;;;;;;23.72;87.23;100130.13;5016649;28;19923;-84
2022/08/31 04:26:07;;;;;;;;;;;;;;;23.69;87.56;100133.88;5017163;28;19912;-83
2022/08/31 04:28:33;;;;;;;;;;;;;;;23.66;87.62;100127.06;5034157;28;19959;-82
2022/08/31 04:30:58;;;;;;;;;;;;;;;23.71;87.21;100134.22;5016575;28;20315;-83
2022/08/31 04:33:23;;;;;;;;;;;;;;;23.66;87.78;100134.78;5017087;28;20003;-83
2022/08/31 04:35:49;;;;;;;;;;;;;;;23.68;87.71;100137.97;5016526;28;19959;-84
2022/08/31 04:38:14;;;;;;;;;;;;;;;23.73;87.55;100132.50;5016500;28;19999;-83
2022/08/31 04:40:40;;;;;;;;;;;;;;;23.74;87.13;100131.25;5016796;28;19956;-83
2022/08/31 04:43:06;;;;;;;;;;;;;;;23.74;87.24;100124.78;5017021;28;19952;-83
2022/08/31 04:45:31;;;;;;;;;;;;;;;23.75;87.26;100129.19;5017230;28;20259;-81
2022/08/31 04:47:56;;;;;;;;;;;;;;;23.76;87.21;100127.97;5016171;28;19972;-83
2022/08/31 04:50:22;;;;;;;;;;;;;;;23.93;86.40;100137.16;5016744;28;19919;-83
2022/08/31 04:52:49;;;;;;;;;;;;;;;23.94;86.40;100139.53;5015613;28;19935;-83
2022/08/31 04:55:16;;;;;;;;;;;;;;;23.92;86.77;100139.22;5033708;28;20382;-83
2022/08/31 04:57:41;;;;;;;;;;;;;;;23.95;86.17;100141.13;5016176;28;19914;-82
2022/08/31 05:00:08;;;;;;;;;;;;;;;24.07;85.27;100135.88;5016761;28;19929;-83
2022/08/31 05:02:33;;;;;;;;;;;;;;;24.20;84.84;100133.84;5016234;28;19920;-83
2022/08/31 05:04:59;;;;;;;;;;;;;;;24.55;83.36;100132.63;5016282;28;19913;-83
2022/08/31 05:07:25;;;;;;;;;;;;;;;24.89;81.34;100139.53;5016853;28;20003;-83
2022/08/31 05:09:51;;;;;;;;;;;;;;;25.18;80.13;100138.50;5016761;28;19924;-83
2022/08/31 05:12:16;;;;;;;;;;;;;;;25.46;79.07;100140.28;5016460;28;20343;-83
2022/08/31 05:14:42;;;;;;;;;;;;;;;25.84;77.65;100144.91;5016434;28;19948;-83
2022/08/31 05:17:08;;;;;;;;;;;;;;;26.15;75.63;100135.47;5016683;28;19953;-82
2022/08/31 05:19:34;;;;;;;;;;;;;;;25.97;75.06;100142.72;5016110;28;19913;-83
2022/08/31 05:21:59;;;;;;;;;;;;;;;25.77;75.83;100139.47;5016667;28;19975;-82
2022/08/31 05:24:25;;;;;;;;;;;;;;;25.68;75.89;100137.38;5015954;28;19913;-84
2022/08/31 05:26:52;;;;;;;;;;;;;;;25.55;76.52;100140.28;5016689;28;19960;-83
2022/08/31 05:29:19;;;;;;;;;;;;;;;25.44;77.20;100134.22;5016040;28;19913;-83
2022/08/31 05:31:44;;;;;;;;;;;;;;;25.25;77.79;100141.09;5033947;28;19913;-84
2022/08/31 05:34:11;;;;;;;;;;;;;;;25.14;77.64;100140.69;5016024;28;19974;-83
2022/08/31 05:36:37;;;;;;;;;;;;;;;25.15;78.14;100145.16;5033711;28;19920;-83
2022/08/31 05:39:02;;;;;;;;;;;;;;;25.10;78.24;100142.91;5016798;28;19917;-83
2022/08/31 05:41:28;;;;;;;;;;;;;;;25.11;78.72;100142.41;5033430;28;19920;-83
2022/08/31 05:43:57;;;;;;;;;;;;;;;25.13;78.57;100147.63;5033394;28;19913;-81
2022/08/31 05:46:22;;;;;;;;;;;;;;;25.19;78.06;100148.63;5016122;28;19949;-82
2022/08/31 05:48:47;;;;;;;;;;;;;;;25.27;78.12;100152.81;5015964;28;19963;-83
2022/08/31 05:51:14;;;;;;;;;;;;;;;25.36;78.15;100147.19;5016500;28;19920;-83
2022/08/31 05:53:39;;;;;;;;;;;;;;;25.45;77.94;100140.72;5015968;28;19920;-83
2022/08/31 05:56:09;;;;;;;;;;;;;;;25.63;77.05;100134.34;5015997;28;19913;-84
2022/08/31 05:58:35;;;;;;;;;;;;;;;25.79;76.69;100136.97;5016666;28;19913;-82
2022/08/31 06:01:01;;;;;;;;;;;;;;;25.90;75.07;100137.31;5015601;28;20371;-84
2022/08/31 06:03:27;;;;;;;;;;;;;;;26.05;74.79;100138.31;5016319;28;19913;-83
2022/08/31 06:05:52;;;;;;;;;;;;;;;26.69;72.66;100139.72;5019039;28;19920;-82
2022/08/31 06:08:18;;;;;;;;;;;;;;;27.74;67.94;100143.06;5019759;28;19913;-82
2022/08/31 06:10:44;;;;;;;;;;;;;;;28.70;65.56;100150.44;5019374;28;20328;-82
2022/08/31 06:13:12;;;;;;;;;;;;;;;29.41;61.63;100150.81;5019531;28;19922;-82
2022/08/31 06:15:38;;;;;;;;;;;;;;;30.03;57.81;100149.72;5019265;28;19914;-82
2022/08/31 06:18:04;;;;;;;;;;;;;;;29.53;60.43;100135.41;5018995;28;19920;-82
2022/08/31 06:20:29;;;;;;;;;;;;;;;30.03;57.85;100141.13;5019455;28;20009;-81
2022/08/31 06:22:55;;;;;;;;;;;;;;;30.09;58.42;100130.53;5018788;28;20280;-82
2022/08/31 06:25:22;;;;;;;;;;;;;;;30.40;57.63;100127.06;5018813;28;19967;-82
2022/08/31 06:27:49;;;;;;;;;;;;;;;30.72;56.77;100119.41;5018619;28;20251;-82
2022/08/31 06:30:18;;;;;;;;;;;;;;;31.29;52.93;100124.47;5018665;28;20000;-80
2022/08/31 06:32:44;;;;;;;;;;;;;;;30.99;54.31;100120.22;5018760;28;19913;-81
2022/08/31 06:35:10;;;;;;;;;;;;;;;31.05;54.35;100118.19;5019316;28;19913;-81
2022/08/31 06:37:35;;;;;;;;;;;;;;;31.44;53.72;100114.94;5018754;28;20402;-82
2022/08/31 06:40:00;;;;;;;;;;;;;;;31.58;52.51;100124.72;5019172;28;19913;-81
2022/08/31 06:42:26;;;;;;;;;;;;;;;31.57;53.14;100129.69;5018059;28;19913;-81
2022/08/31 06:44:51;;;;;;;;;;;;;;;31.48;52.58;100124.09;5017904;28;19913;-81
2022/08/31 06:47:18;;;;;;;;;;;;;;;31.62;52.72;100123.19;5036522;28;19913;-81
2022/08/31 06:49:43;;;;;;;;;;;;;;;32.18;51.44;100119.94;5018685;28;19936;-81
2022/08/31 06:52:09;;;;;;;;;;;;;;;32.27;51.00;100116.84;5018436;28;20339;-81
2022/08/31 06:54:34;;;;;;;;;;;;;;;31.58;52.74;100119.75;5018078;28;20369;-81
2022/08/31 06:57:01;;;;;;;;;;;;;;;31.71;52.42;100125.88;5018214;28;19924;-81
2022/08/31 06:59:27;;;;;;;;;;;;;;;31.94;51.62;100128.94;5036239;28;20000;-80
2022/08/31 07:01:52;;;;;;;;;;;;;;;31.46;52.78;100126.72;5017411;28;19991;-81
2022/08/31 07:04:18;;;;;;;;;;;;;;;32.19;51.51;100130.94;5018090;28;19925;-80
2022/08/31 07:06:43;;;;;;;;;;;;;;;32.41;51.42;100135.28;5018643;28;20307;-81
2022/08/31 07:09:11;;;;;;;;;;;;;;;32.44;50.51;100126.41;5017893;28;20209;-81
2022/08/31 07:11:40;;;;;;;;;;;;;;;33.14;49.46;100142.09;5017765;28;19913;-81
2022/08/31 07:14:06;;;;;;;;;;;;;;;33.77;48.55;100140.81;5036216;28;19921;-81
2022/08/31 07:16:32;;;;;;;;;;;;;;;32.90;50.82;100139.66;5017244;28;19936;-81
2022/08/31 07:18:59;;;;;;;;;;;;;;;32.12;50.94;100134.31;5017876;28;20352;-79
2022/08/31 07:21:25;;;;;;;;;;;;;;;31.97;52.83;100139.44;5035833;28;19913;-81
2022/08/31 07:23:52;;;;;;;;;;;;;;;32.51;50.73;100134.53;5017824;28;19940;-80
2022/08/31 07:26:27;;;;;;;;;;;;;;;32.45;50.73;100130.84;5017825;28;19947;-80
2022/08/31 07:28:53;;;;;;;;;;;;;;;33.22;48.88;100131.63;5016998;28;19913;-82
2022/08/31 07:31:21;;;;;;;;;;;;;;;33.74;47.98;100141.91;5017314;28;19949;-81
2022/08/31 07:33:51;;;;;;;;;;;;;;;33.10;48.34;100138.69;5017110;28;19913;-81
2022/08/31 07:36:16;;;;;;;;;;;;;;;32.34;51.25;100140.19;5035229;28;19913;-81
2022/08/31 07:44:11;;;;;;;;;;;;;;;31.68;52.23;100135.53;5035345;28;19924;-79
2022/08/31 07:46:37;;;;;;;;;;;;;;;31.95;51.86;100136.28;5017376;28;19920;-81
2022/08/31 07:49:02;;;;;;;;;;;;;;;31.81;52.36;100130.19;5017119;28;20351;-80
2022/08/31 07:51:28;;;;;;;;;;;;;;;31.47;52.87;100122.53;5017206;28;19913;-79
2022/08/31 07:53:54;;;;;;;;;;;;;;;31.67;51.87;100116.69;5017347;28;20008;-80
2022/08/31 07:56:20;;;;;;;;;;;;;;;31.91;50.89;100124.22;5017147;28;19913;-80
2022/08/31 07:58:46;;;;;;;;;;;;;;;31.88;50.95;100133.88;5016843;28;19919;-80
2022/08/31 08:01:13;;;;;;;;;;;;;;;31.31;52.33;100118.22;5016510;28;20336;-78
2022/08/31 08:03:42;;;;;;;;;;;;;;;31.75;50.80;100117.81;5016862;28;19917;-78
2022/08/31 08:06:11;;;;;;;;;;;;;;;31.70;51.47;100123.53;5016817;28;19917;-78
2022/08/31 08:08:36;;;;;;;;;;;;;;;31.02;52.39;100119.22;5017659;28;20332;-77
2022/08/31 08:11:01;;;;;;;;;;;;;;;30.60;53.82;100123.41;5017131;28;19913;-77
2022/08/31 08:13:27;;;;;;;;;;;;;;;30.48;54.73;100128.22;5035089;28;19917;-75
2022/08/31 08:15:52;;;;;;;;;;;;;;;30.58;54.13;100131.75;5016991;28;19913;-75
2022/08/31 08:18:18;;;;;;;;;;;;;;;30.87;52.79;100135.75;5017252;28;19917;-75
2022/08/31 08:20:43;;;;;;;;;;;;;;;30.67;52.81;100134.47;5016697;28;19913;-77
2022/08/31 08:23:11;;;;;;;;;;;;;;;30.71;52.54;100128.53;5016605;28;19963;-74
2022/08/31 08:25:36;;;;;;;;;;;;;;;31.06;52.13;100131.28;5016709;28;19920;-74
2022/08/31 08:28:01;;;;;;;;;;;;;;;31.01;52.95;100129.13;5017399;28;19913;-74
2022/08/31 08:30:27;;;;;;;;;;;;;;;31.48;51.36;100133.53;5016610;28;19913;-75
2022/08/31 08:32:58;;;;;;;;;;;;;;;32.28;48.92;100139.38;5016660;28;19952;-75
2022/08/31 08:35:30;;;;;;;;;;;;;;;32.97;47.27;100132.59;5034654;28;20300;-75
2022/08/31 08:37:56;;;;;;;;;;;;;;;32.99;46.57;100147.31;5016522;28;19967;-74
2022/08/31 08:40:31;;;;;;;;;;;;;;;33.87;44.42;100145.81;5016801;28;20314;-75
2022/08/31 08:42:58;;;;;;;;;;;;;;;33.39;44.45;100140.28;5016667;28;19920;-75
2022/08/31 08:45:24;;;;;;;;;;;;;;;33.96;44.74;100135.34;5016103;28;19920;-75
2022/08/31 08:47:55;;;;;;;;;;;;;;;34.34;43.28;100130.78;5015777;28;19914;-76
2022/08/31 08:50:22;;;;;;;;;;;;;;;34.35;43.57;100135.22;5016698;28;19917;-77
2022/08/31 08:52:48;;;;;;;;;;;;;;;34.13;43.94;100127.44;5016153;28;19913;-76
2022/08/31 08:55:16;;;;;;;;;;;;;;;35.26;41.42;100121.94;5015956;28;19967;-76
2022/08/31 08:57:42;;;;;;;;;;;;;;;34.78;42.95;100126.94;5016816;28;19920;-76
2022/08/31 09:00:14;;;;;;;;;;;;;;;34.38;43.10;100142.84;5016237;28;19917;-74
2022/08/31 09:02:42;;;;;;;;;;;;;;;34.14;44.69;100135.59;5016030;28;19913;-75
2022/08/31 09:05:09;;;;;;;;;;;;;;;33.93;44.83;100134.31;5016581;28;20334;-74
2022/08/31 09:07:36;;;;;;;;;;;;;;;34.30;43.27;100124.50;5016043;28;19919;-76
2022/08/31 09:10:13;;;;;;;;;;;;;;;33.97;44.17;100126.16;5016504;28;20306;-75
2022/08/31 09:12:45;;;;;;;;;;;;;;;34.95;42.49;100140.56;5015895;28;19913;-77
2022/08/31 09:15:34;;;;;;;;;;;;;;;35.30;41.25;100134.78;5014014;28;19962;-77
2022/08/31 09:18:00;;;;;;;;;;;;;;;34.40;42.86;100138.09;5044765;28;19916;-76
2022/08/31 09:20:27;;;;;;;;;;;;;;;34.17;43.73;100136.59;5053246;28;20051;-75
2022/08/31 09:22:54;;;;;;;;;;;;;;;33.89;43.93;100131.66;5027336;28;19970;-77
2022/08/31 09:25:27;;;;;;;;;;;;;;;34.69;42.81;100133.03;5004985;28;20881;-81
2022/08/31 09:27:57;;;;;;;;;;;;;;;33.64;43.98;100126.94;5033153;28;19920;-79
2022/08/31 09:30:38;;;;;;;;;;;;;;;34.00;43.30;100127.22;5015621;28;19964;-76
2022/08/31 09:33:03;;;;;;;;;;;;;;;33.41;44.15;100120.41;4996573;28;19914;-80
2022/08/31 09:35:40;;;;;;;;;;;;;;;33.46;44.38;100118.84;5012404;28;19921;-77
2022/08/31 09:38:15;;;;;;;;;;;;;;;33.27;44.45;100122.19;4996154;28;19960;-77
2022/08/31 09:40:48;;;;;;;;;;;;;;;33.60;44.16;100115.66;4999138;28;20081;-77
2022/08/31 09:43:23;;;;;;;;;;;;;;;33.28;45.30;100118.00;4999623;28;19921;-79
2022/08/31 09:45:53;;;;;;;;;;;;;;;32.17;47.34;100107.63;5018091;28;20008;-77
2022/08/31 09:48:47;;;;;;;;;;;;;;;32.12;48.14;100111.28;5015877;28;19959;-78
2022/08/31 09:51:22;;;;;;;;;;;;;;;31.88;48.81;100107.97;4997298;28;19914;-77
2022/08/31 09:56:31;;;;;;;;;;;;;;;33.18;46.14;100096.50;5017161;28;20270;-77
2022/08/31 09:59:00;;;;;;;;;;;;;;;32.34;48.43;100093.34;4999359;28;19913;-78
2022/08/31 10:01:43;;;;;;;;;;;;;;;33.30;46.06;100092.31;5016820;28;20259;-78
2022/08/31 10:04:22;;;;;;;;;;;;;;;32.93;46.29;100091.75;5017073;28;20016;-76
2022/08/31 10:06:54;;;;;;;;;;;;;;;33.97;44.01;100110.94;4999901;28;19914;-77
2022/08/31 10:09:32;;;;;;;;;;;;;;;34.11;43.44;100101.97;4999774;28;19913;-78
2022/08/31 10:11:59;;;;;;;;;;;;;;;34.28;43.70;100092.47;4999571;28;20351;-78
2022/08/31 10:14:25;;;;;;;;;;;;;;;34.17;43.87;100093.31;4998938;28;20360;-76
2022/08/31 10:17:09;;;;;;;;;;;;;;;33.73;44.73;100082.63;4999016;28;19918;-78
2022/08/31 10:19:34;;;;;;;;;;;;;;;33.28;45.07;100086.28;4998928;28;19913;-78
2022/08/31 10:22:06;;;;;;;;;;;;;;;34.48;42.72;100091.38;4999347;28;20351;-78
2022/08/31 10:24:37;;;;;;;;;;;;;;;33.85;44.12;100090.72;4999258;28;19917;-77
2022/08/31 10:27:21;;;;;;;;;;;;;;;34.18;42.84;100083.31;4998950;28;20052;-77
2022/08/31 10:29:55;;;;;;;;;;;;;;;34.99;41.36;100081.13;5017100;28;19920;-78
2022/08/31 10:32:22;;;;;;;;;;;;;;;34.66;42.15;100082.88;5018982;28;19917;-76
2022/08/31 10:35:08;;;;;;;;;;;;;;;33.59;43.70;100085.25;5018898;28;20310;-76
2022/08/31 10:37:35;;;;;;;;;;;;;;;34.61;42.06;100072.13;5018592;28;20232;-77
2022/08/31 10:40:10;;;;;;;;;;;;;;;33.52;44.78;100073.47;5019006;28;19917;-78
2022/08/31 10:42:38;;;;;;;;;;;;;;;34.42;42.61;100074.06;5018191;28;19932;-78
2022/08/31 10:45:17;;;;;;;;;;;;;;;33.73;44.48;100063.22;5019012;28;19913;-78
2022/08/31 10:47:46;;;;;;;;;;;;;;;33.42;43.92;100070.06;5018963;28;19967;-74
2022/08/31 10:50:15;;;;;;;;;;;;;;;33.85;44.12;100073.41;5035273;28;19956;-74
2022/08/31 10:52:46;;;;;;;;;;;;;;;34.84;41.37;100069.13;5017571;28;20355;-76
2022/08/31 10:55:29;;;;;;;;;;;;;;;34.06;43.76;100070.25;5017604;28;19917;-79
2022/08/31 10:58:13;;;;;;;;;;;;;;;33.55;45.66;100066.63;4998339;28;19953;-80
2022/08/31 11:00:48;;;;;;;;;;;;;;;34.84;43.23;100058.34;4998522;28;20386;-78
2022/08/31 11:03:32;;;;;;;;;;;;;;;34.04;43.72;100058.47;4998725;28;20407;-77
2022/08/31 11:06:22;;;;;;;;;;;;;;;35.03;42.16;100057.72;4998063;28;19914;-79
2022/08/31 11:09:06;;;;;;;;;;;;;;;34.72;42.63;100056.84;4998465;28;19913;-77
2022/08/31 11:11:38;;;;;;;;;;;;;;;34.21;43.88;100053.41;4998060;28;19913;-77
2022/08/31 11:14:15;;;;;;;;;;;;;;;34.16;44.27;100057.09;4998335;28;19996;-77
2022/08/31 11:16:41;;;;;;;;;;;;;;;33.97;45.30;100062.66;5015684;28;19996;-79
2022/08/31 11:19:25;;;;;;;;;;;;;;;34.67;43.99;100055.53;4998198;28;20013;-78
2022/08/31 11:22:02;;;;;;;;;;;;;;;33.62;45.52;100051.69;5016059;28;19963;-77
2022/08/31 11:24:36;;;;;;;;;;;;;;;33.49;46.50;100039.91;4998343;28;20379;-78
2022/08/31 11:27:05;;;;;;;;;;;;;;;33.41;46.49;100044.63;4997751;28;19913;-77
2022/08/31 11:29:43;;;;;;;;;;;;;;;33.89;45.21;100036.44;4998555;28;19948;-78
2022/08/31 11:32:24;;;;;;;;;;;;;;;33.38;45.98;100043.56;5015131;28;19952;-78
2022/08/31 11:34:52;;;;;;;;;;;;;;;33.50;46.14;100041.47;5015597;28;20267;-79
2022/08/31 11:37:36;;;;;;;;;;;;;;;33.71;45.42;100039.88;4997476;28;19913;-77
2022/08/31 11:40:01;;;;;;;;;;;;;;;33.37;47.35;100051.41;4997501;28;19959;-77
2022/08/31 11:42:27;;;;;;;;;;;;;;;33.83;45.71;100049.31;4997627;28;19914;-79
2022/08/31 11:45:00;;;;;;;;;;;;;;;32.97;47.31;100051.91;4997665;28;19992;-79
2022/08/31 11:47:26;;;;;;;;;;;;;;;32.80;48.13;100049.00;4997373;28;19921;-79
2022/08/31 11:49:54;;;;;;;;;;;;;;;33.06;47.19;100049.56;4997827;28;19913;-77
2022/08/31 11:52:19;;;;;;;;;;;;;;;32.86;47.78;100059.22;5014723;28;19913;-78
2022/08/31 11:54:47;;;;;;;;;;;;;;;32.85;48.39;100063.41;4997553;28;19914;-78
2022/08/31 11:57:19;;;;;;;;;;;;;;;32.05;50.66;100057.06;5015176;28;19935;-77
2022/08/31 11:59:46;;;;;;;;;;;;;;;31.90;50.83;100042.09;4997516;28;20306;-78
2022/08/31 12:02:18;;;;;;;;;;;;;;;31.50;52.97;100038.16;4997050;28;19920;-78
2022/08/31 12:04:52;;;;;;;;;;;;;;;31.56;52.65;100036.09;4997080;28;19921;-78
2022/08/31 12:07:25;;;;;;;;;;;;;;;32.14;49.97;100033.84;4997794;28;19914;-76
2022/08/31 12:10:09;;;;;;;;;;;;;;;32.55;49.05;100039.25;4997493;28;20015;-75
2022/08/31 12:12:42;;;;;;;;;;;;;;;32.72;48.57;100031.44;4997494;28;20275;-77
2022/08/31 12:15:07;;;;;;;;;;;;;;;32.75;48.84;100029.59;5015013;28;19920;-78
2022/08/31 12:17:45;;;;;;;;;;;;;;;32.51;48.73;100032.97;4997515;28;19913;-76
2022/08/31 12:20:30;;;;;;;;;;;;;;;32.08;50.42;100036.69;4996966;28;19971;-76
2022/08/31 12:23:36;;;;;;;;;;;;;;;31.56;51.79;100024.59;4997597;28;19945;-78
2022/08/31 12:26:17;;;;;;;;;;;;;;;32.30;50.91;100023.69;4996777;28;19917;-79
2022/08/31 12:28:45;;;;;;;;;;;;;;;31.63;52.07;100021.25;4996754;28;19964;-76
2022/08/31 12:31:13;;;;;;;;;;;;;;;32.39;49.88;100014.88;4997488;28;19940;-79
2022/08/31 12:33:41;;;;;;;;;;;;;;;32.40;49.88;100009.91;4997187;28;19913;-78
2022/08/31 12:36:11;;;;;;;;;;;;;;;32.04;51.17;100012.34;4996945;28;19917;-76
2022/08/31 12:38:37;;;;;;;;;;;;;;;32.32;49.75;100013.22;4996320;28;19955;-76
2022/08/31 12:41:03;;;;;;;;;;;;;;;32.58;49.03;100015.94;4997164;28;19914;-78
2022/08/31 12:43:32;;;;;;;;;;;;;;;32.82;48.82;100024.13;4996157;28;19913;-76
2022/08/31 12:46:00;;;;;;;;;;;;;;;32.37;49.93;100010.94;4996564;28;19920;-77
2022/08/31 12:48:35;;;;;;;;;;;;;;;32.49;49.53;100007.56;4997280;28;19980;-75
2022/08/31 12:51:00;;;;;;;;;;;;;;;32.52;49.18;100008.63;4996388;28;19924;-75
2022/08/31 12:53:37;;;;;;;;;;;;;;;32.42;49.67;100008.06;5014662;28;19913;-76